createdAt,value
2019-04-30T00:00:53.028Z,11.02
2019-04-30T00:01:55.888Z,11.02
2019-04-30T00:02:55.185Z,11.01
2019-04-30T00:03:55.778Z,11.01
2019-04-30T00:04:55.401Z,11.00
2019-04-30T00:05:57.467Z,11.00
2019-04-30T00:06:55.975Z,11.00
2019-04-30T00:07:58.502Z,10.99
2019-04-30T00:08:57.715Z,10.99
2019-04-30T00:09:57.726Z,10.99
2019-04-30T00:10:57.867Z,10.99
2019-04-30T00:12:01.245Z,10.98
2019-04-30T00:12:59.038Z,10.98
2019-04-30T00:14:00.380Z,10.98
2019-04-30T00:15:00.763Z,10.97
2019-04-30T00:16:01.712Z,10.97
2019-04-30T00:17:00.702Z,10.97
2019-04-30T00:18:02.147Z,10.96
2019-04-30T00:19:02.624Z,10.96
2019-04-30T00:20:03.069Z,10.96
2019-04-30T00:21:05.263Z,10.95
2019-04-30T00:22:02.881Z,10.95
2019-04-30T00:23:05.147Z,10.94
2019-04-30T00:24:06.229Z,10.94
2019-04-30T00:25:05.351Z,10.94
2019-04-30T00:26:10.147Z,10.94
2019-04-30T00:27:05.513Z,10.94
2019-04-30T00:28:08.684Z,10.93
2019-04-30T00:29:06.308Z,10.93
2019-04-30T00:30:09.137Z,10.93
2019-04-30T00:30:16.250Z,10.92
2019-04-30T00:31:23.763Z,10.92
2019-04-30T00:32:17.181Z,10.92
2019-04-30T00:33:22.032Z,10.92
2019-04-30T00:34:17.959Z,10.92
2019-04-30T00:35:19.770Z,10.91
2019-04-30T00:36:18.766Z,10.91
2019-04-30T00:37:20.208Z,10.91
2019-04-30T00:38:20.728Z,10.90
2019-04-30T00:39:21.133Z,10.90
2019-04-30T00:40:25.700Z,10.90
2019-04-30T00:41:21.207Z,10.90
2019-04-30T00:42:24.152Z,10.89
2019-04-30T00:43:22.558Z,10.89
2019-04-30T00:44:28.222Z,10.89
2019-04-30T00:45:25.178Z,10.89
2019-04-30T00:46:27.275Z,10.89
2019-04-30T00:47:25.683Z,10.88
2019-04-30T00:48:29.686Z,10.88
2019-04-30T00:49:26.663Z,10.88
2019-04-30T00:50:29.050Z,10.87
2019-04-30T00:51:26.338Z,10.87
2019-04-30T00:52:29.583Z,10.87
2019-04-30T00:53:27.042Z,10.87
2019-04-30T00:54:30.846Z,10.87
2019-04-30T00:55:27.903Z,10.86
2019-04-30T00:56:29.537Z,10.86
2019-04-30T00:57:29.996Z,10.85
2019-04-30T00:58:30.501Z,10.85
2019-04-30T00:59:29.877Z,10.85
2019-04-30T01:00:31.405Z,10.84
2019-04-30T01:01:31.955Z,10.84
2019-04-30T01:02:32.614Z,10.83
2019-04-30T01:03:34.946Z,10.83
2019-04-30T01:04:32.463Z,10.82
2019-04-30T01:05:35.358Z,10.81
2019-04-30T01:06:34.978Z,10.81
2019-04-30T01:07:35.397Z,10.80
2019-04-30T01:08:35.815Z,10.79
2019-04-30T01:09:35.389Z,10.78
2019-04-30T01:10:35.488Z,10.78
2019-04-30T01:11:39.853Z,10.77
2019-04-30T01:12:43.897Z,10.77
2019-04-30T01:13:38.905Z,10.77
2019-04-30T01:14:38.640Z,10.77
2019-04-30T01:15:39.080Z,10.77
2019-04-30T01:16:39.521Z,10.76
2019-04-30T01:17:40.847Z,10.76
2019-04-30T01:18:39.957Z,10.76
2019-04-30T01:19:41.438Z,10.76
2019-04-30T01:20:41.947Z,10.75
2019-04-30T01:21:46.932Z,10.75
2019-04-30T01:22:42.297Z,10.75
2019-04-30T01:23:51.724Z,10.75
2019-04-30T01:24:43.255Z,10.74
2019-04-30T01:25:49.907Z,10.74
2019-04-30T01:26:44.590Z,10.74
2019-04-30T01:27:46.753Z,10.73
2019-04-30T01:28:45.432Z,10.73
2019-04-30T01:29:48.633Z,10.73
2019-04-30T01:30:46.343Z,10.73
2019-04-30T01:31:48.869Z,10.73
2019-04-30T01:32:50.255Z,10.72
2019-04-30T01:33:48.940Z,10.72
2019-04-30T01:34:49.858Z,10.72
2019-04-30T01:35:48.891Z,10.71
2019-04-30T01:36:52.198Z,10.70
2019-04-30T01:37:49.338Z,10.69
2019-04-30T01:38:52.439Z,10.68
2019-04-30T01:39:50.353Z,10.67
2019-04-30T01:40:51.816Z,10.66
2019-04-30T01:41:52.408Z,10.65
2019-04-30T01:42:52.806Z,10.64
2019-04-30T01:43:53.303Z,10.63
2019-04-30T01:44:54.177Z,10.62
2019-04-30T01:45:02.710Z,10.44
2019-04-30T01:46:09.370Z,10.44
2019-04-30T01:47:03.505Z,10.44
2019-04-30T01:48:09.270Z,10.44
2019-04-30T01:49:04.872Z,10.44
2019-04-30T01:50:06.496Z,10.44
2019-04-30T01:51:08.856Z,10.44
2019-04-30T01:52:06.429Z,10.44
2019-04-30T01:53:11.435Z,10.44
2019-04-30T01:54:09.246Z,10.44
2019-04-30T01:55:08.549Z,10.44
2019-04-30T01:56:09.184Z,10.44
2019-04-30T01:57:10.835Z,10.43
2019-04-30T01:58:09.714Z,10.43
2019-04-30T01:59:11.129Z,10.43
2019-04-30T02:00:11.651Z,10.43
2019-04-30T02:01:12.163Z,10.42
2019-04-30T02:02:12.655Z,10.42
2019-04-30T02:03:13.040Z,10.42
2019-04-30T02:04:13.485Z,10.42
2019-04-30T02:05:13.860Z,10.42
2019-04-30T02:06:14.315Z,10.42
2019-04-30T02:07:14.751Z,10.42
2019-04-30T02:08:15.351Z,10.41
2019-04-30T02:09:16.047Z,10.41
2019-04-30T02:10:18.481Z,10.41
2019-04-30T02:11:15.880Z,10.41
2019-04-30T02:12:19.711Z,10.41
2019-04-30T02:13:18.896Z,10.40
2019-04-30T02:14:18.970Z,10.40
2019-04-30T02:15:19.198Z,10.40
2019-04-30T02:16:20.991Z,10.40
2019-04-30T02:17:19.353Z,10.40
2019-04-30T02:18:19.677Z,10.40
2019-04-30T02:19:21.161Z,10.40
2019-04-30T02:20:21.652Z,10.40
2019-04-30T02:21:22.015Z,10.40
2019-04-30T02:22:22.461Z,10.39
2019-04-30T02:23:22.849Z,10.39
2019-04-30T02:24:23.230Z,10.39
2019-04-30T02:25:23.598Z,10.39
2019-04-30T02:26:23.998Z,10.38
2019-04-30T02:27:24.376Z,10.37
2019-04-30T02:28:25.260Z,10.36
2019-04-30T02:29:24.703Z,10.35
2019-04-30T02:30:26.337Z,10.35
2019-04-30T02:31:26.756Z,10.34
2019-04-30T02:32:30.195Z,10.33
2019-04-30T02:33:27.113Z,10.32
2019-04-30T02:34:30.308Z,10.32
2019-04-30T02:35:28.852Z,10.31
2019-04-30T02:36:29.919Z,10.30
2019-04-30T02:37:30.130Z,10.30
2019-04-30T02:38:30.248Z,10.30
2019-04-30T02:39:30.387Z,10.29
2019-04-30T02:40:31.834Z,10.29
2019-04-30T02:41:32.258Z,10.29
2019-04-30T02:42:32.686Z,10.28
2019-04-30T02:43:33.235Z,10.28
2019-04-30T02:44:33.710Z,10.28
2019-04-30T02:45:34.127Z,10.27
2019-04-30T02:45:42.672Z,10.20
2019-04-30T02:46:44.018Z,10.20
2019-04-30T02:47:44.638Z,10.20
2019-04-30T02:48:45.643Z,10.19
2019-04-30T02:49:46.035Z,10.19
2019-04-30T02:50:49.006Z,10.19
2019-04-30T02:51:45.931Z,10.18
2019-04-30T02:52:50.462Z,10.17
2019-04-30T02:53:47.174Z,10.16
2019-04-30T02:54:49.956Z,10.15
2019-04-30T02:55:49.942Z,10.14
2019-04-30T02:56:50.689Z,10.14
2019-04-30T02:57:49.912Z,10.13
2019-04-30T02:58:50.612Z,10.13
2019-04-30T02:59:50.365Z,10.13
2019-04-30T03:00:51.785Z,10.13
2019-04-30T03:01:52.218Z,10.13
2019-04-30T03:02:52.747Z,10.13
2019-04-30T03:03:53.168Z,10.13
2019-04-30T03:04:53.665Z,10.13
2019-04-30T03:05:54.163Z,10.13
2019-04-30T03:06:54.517Z,10.13
2019-04-30T03:07:54.934Z,10.13
2019-04-30T03:08:55.431Z,10.13
2019-04-30T03:09:56.050Z,10.13
2019-04-30T03:10:56.465Z,10.12
2019-04-30T03:11:59.944Z,10.12
2019-04-30T03:12:56.354Z,10.12
2019-04-30T03:13:59.290Z,10.12
2019-04-30T03:15:00.261Z,10.12
2019-04-30T03:15:59.345Z,10.12
2019-04-30T03:17:00.098Z,10.12
2019-04-30T03:18:00.641Z,10.12
2019-04-30T03:19:00.148Z,10.12
2019-04-30T03:20:03.549Z,10.12
2019-04-30T03:21:01.248Z,10.12
2019-04-30T03:22:02.498Z,10.12
2019-04-30T03:23:02.916Z,10.12
2019-04-30T03:24:03.593Z,10.13
2019-04-30T03:25:04.044Z,10.13
2019-04-30T03:26:04.445Z,10.13
2019-04-30T03:27:04.926Z,10.13
2019-04-30T03:28:05.473Z,10.13
2019-04-30T03:29:06.133Z,10.14
2019-04-30T03:30:06.676Z,10.14
2019-04-30T03:31:07.103Z,10.14
2019-04-30T03:32:12.397Z,10.15
2019-04-30T03:33:07.156Z,10.15
2019-04-30T03:34:17.101Z,10.15
2019-04-30T03:35:12.514Z,10.15
2019-04-30T03:36:12.391Z,10.15
2019-04-30T03:37:10.111Z,10.15
2019-04-30T03:38:10.285Z,10.15
2019-04-30T03:39:11.902Z,10.15
2019-04-30T03:40:13.120Z,10.15
2019-04-30T03:41:12.061Z,10.15
2019-04-30T03:42:13.625Z,10.15
2019-04-30T03:43:13.966Z,10.14
2019-04-30T03:44:21.760Z,10.14
2019-04-30T03:45:13.914Z,10.13
2019-04-30T03:46:15.790Z,10.12
2019-04-30T03:47:16.216Z,10.12
2019-04-30T03:47:24.758Z,9.97
2019-04-30T03:48:26.075Z,9.97
2019-04-30T03:49:26.564Z,9.97
2019-04-30T03:50:31.521Z,9.97
2019-04-30T03:51:26.539Z,9.97
2019-04-30T03:52:29.196Z,9.98
2019-04-30T03:53:29.682Z,9.98
2019-04-30T03:54:29.285Z,9.98
2019-04-30T03:55:29.938Z,9.98
2019-04-30T03:56:29.867Z,9.98
2019-04-30T03:57:30.278Z,9.98
2019-04-30T03:58:29.912Z,9.97
2019-04-30T03:59:31.304Z,9.97
2019-04-30T04:00:31.715Z,9.96
2019-04-30T04:01:32.241Z,9.95
2019-04-30T04:02:32.712Z,9.95
2019-04-30T04:03:33.167Z,9.94
2019-04-30T04:04:33.689Z,9.93
2019-04-30T04:05:34.193Z,9.93
2019-04-30T04:06:34.897Z,9.93
2019-04-30T04:07:35.432Z,9.92
2019-04-30T04:08:35.893Z,9.92
2019-04-30T04:09:36.628Z,9.92
2019-04-30T04:10:37.529Z,9.92
2019-04-30T04:11:39.625Z,9.92
2019-04-30T04:12:39.544Z,9.91
2019-04-30T04:13:40.057Z,9.91
2019-04-30T04:14:39.424Z,9.91
2019-04-30T04:15:39.906Z,9.90
2019-04-30T04:16:41.197Z,9.89
2019-04-30T04:17:40.338Z,9.89
2019-04-30T04:18:41.772Z,9.88
2019-04-30T04:19:42.142Z,9.87
2019-04-30T04:20:42.951Z,9.87
2019-04-30T04:21:42.242Z,9.86
2019-04-30T04:22:42.645Z,9.85
2019-04-30T04:23:44.209Z,9.85
2019-04-30T04:24:44.737Z,9.85
2019-04-30T04:25:45.455Z,9.85
2019-04-30T04:26:46.041Z,9.85
2019-04-30T04:27:46.496Z,9.84
2019-04-30T04:28:49.396Z,9.84
2019-04-30T04:29:46.321Z,9.84
2019-04-30T04:30:50.531Z,9.84
2019-04-30T04:31:50.148Z,9.84
2019-04-30T04:32:50.158Z,9.84
2019-04-30T04:33:52.293Z,9.84
2019-04-30T04:34:50.514Z,9.84
2019-04-30T04:35:49.889Z,9.85
2019-04-30T04:36:50.715Z,9.86
2019-04-30T04:37:50.395Z,9.86
2019-04-30T04:38:51.810Z,9.87
2019-04-30T04:39:52.247Z,9.87
2019-04-30T04:40:52.904Z,9.88
2019-04-30T04:41:53.604Z,9.89
2019-04-30T04:42:54.099Z,9.90
2019-04-30T04:43:54.490Z,9.90
2019-04-30T04:44:54.966Z,9.91
2019-04-30T04:45:55.465Z,9.91
2019-04-30T04:46:56.068Z,9.91
2019-04-30T04:47:56.503Z,9.91
2019-04-30T04:48:59.391Z,9.91
2019-04-30T04:49:56.440Z,9.92
2019-04-30T04:50:05.960Z,9.92
2019-04-30T04:51:10.865Z,9.92
2019-04-30T04:52:06.654Z,9.92
2019-04-30T04:53:11.286Z,9.92
2019-04-30T04:54:10.175Z,9.92
2019-04-30T04:55:09.998Z,9.92
2019-04-30T04:56:10.069Z,9.92
2019-04-30T04:57:16.966Z,9.93
2019-04-30T04:58:12.732Z,9.93
2019-04-30T04:59:10.478Z,9.93
2019-04-30T05:00:11.033Z,9.94
2019-04-30T05:01:13.781Z,9.94
2019-04-30T05:02:13.153Z,9.94
2019-04-30T05:03:13.650Z,9.94
2019-04-30T05:04:14.297Z,9.94
2019-04-30T05:05:14.699Z,9.94
2019-04-30T05:06:15.675Z,9.94
2019-04-30T05:07:16.093Z,9.94
2019-04-30T05:08:18.479Z,9.94
2019-04-30T05:09:16.011Z,9.94
2019-04-30T05:10:19.233Z,9.95
2019-04-30T05:11:16.982Z,9.95
2019-04-30T05:12:18.583Z,9.96
2019-04-30T05:13:19.237Z,9.97
2019-04-30T05:14:19.108Z,9.98
2019-04-30T05:15:19.563Z,9.99
2019-04-30T05:16:19.519Z,10.00
2019-04-30T05:17:21.019Z,10.01
2019-04-30T05:18:22.806Z,10.02
2019-04-30T05:19:21.080Z,10.03
2019-04-30T05:20:22.841Z,10.04
2019-04-30T05:21:23.336Z,10.05
2019-04-30T05:22:23.936Z,10.06
2019-04-30T05:23:24.668Z,10.07
2019-04-30T05:24:25.575Z,10.09
2019-04-30T05:25:25.990Z,10.10
2019-04-30T05:26:28.579Z,10.11
2019-04-30T05:27:25.922Z,10.12
2019-04-30T05:28:27.379Z,10.13
2019-04-30T05:29:28.972Z,10.15
2019-04-30T05:30:29.369Z,10.16
2019-04-30T05:31:28.979Z,10.17
2019-04-30T05:32:29.337Z,10.18
2019-04-30T05:33:29.032Z,10.19
2019-04-30T05:34:30.580Z,10.20
2019-04-30T05:35:31.384Z,10.22
2019-04-30T05:36:31.911Z,10.23
2019-04-30T05:37:32.583Z,10.25
2019-04-30T05:38:32.956Z,10.26
2019-04-30T05:39:33.448Z,10.28
2019-04-30T05:40:34.186Z,10.30
2019-04-30T05:41:33.621Z,10.32
2019-04-30T05:42:35.085Z,10.34
2019-04-30T05:43:35.907Z,10.35
2019-04-30T05:44:36.448Z,10.36
2019-04-30T05:45:38.896Z,10.38
2019-04-30T05:46:36.384Z,10.39
2019-04-30T05:47:38.890Z,10.40
2019-04-30T05:48:37.235Z,10.42
2019-04-30T05:49:38.953Z,10.44
2019-04-30T05:50:39.153Z,10.47
2019-04-30T05:51:38.877Z,10.49
2019-04-30T05:52:39.725Z,10.52
2019-04-30T05:53:39.531Z,10.55
2019-04-30T05:54:39.753Z,10.59
2019-04-30T05:55:41.687Z,10.62
2019-04-30T05:55:50.233Z,11.21
2019-04-30T05:56:51.566Z,11.21
2019-04-30T05:57:56.236Z,11.21
2019-04-30T05:58:51.904Z,11.22
2019-04-30T05:59:53.308Z,11.23
2019-04-30T06:00:53.683Z,11.24
2019-04-30T06:01:53.975Z,11.26
2019-04-30T06:02:54.375Z,11.29
2019-04-30T06:03:54.955Z,11.32
2019-04-30T06:04:55.346Z,11.35
2019-04-30T06:05:56.114Z,11.39
2019-04-30T06:06:58.629Z,11.43
2019-04-30T06:07:56.078Z,11.47
2019-04-30T06:09:06.166Z,11.52
2019-04-30T06:09:59.586Z,11.56
2019-04-30T06:10:59.752Z,11.61
2019-04-30T06:11:59.121Z,11.64
2019-04-30T06:12:59.459Z,11.67
2019-04-30T06:13:59.701Z,11.70
2019-04-30T06:15:01.170Z,11.73
2019-04-30T06:16:01.726Z,11.75
2019-04-30T06:17:02.196Z,11.77
2019-04-30T06:18:10.843Z,11.80
2019-04-30T06:19:02.552Z,11.83
2019-04-30T06:20:15.554Z,11.87
2019-04-30T06:21:03.663Z,11.91
2019-04-30T06:22:08.065Z,11.96
2019-04-30T06:23:04.147Z,12.03
2019-04-30T06:24:05.701Z,12.10
2019-04-30T06:25:06.301Z,12.19
2019-04-30T06:26:09.588Z,12.30
2019-04-30T06:27:06.241Z,12.43
2019-04-30T06:28:09.594Z,12.57
2019-04-30T06:29:09.146Z,12.71
2019-04-30T06:30:09.712Z,12.84
2019-04-30T06:31:09.104Z,12.97
2019-04-30T06:32:09.325Z,13.11
2019-04-30T06:33:11.746Z,13.23
2019-04-30T06:34:10.223Z,13.35
2019-04-30T06:35:11.795Z,13.46
2019-04-30T06:36:12.142Z,13.57
2019-04-30T06:37:12.598Z,13.67
2019-04-30T06:38:13.319Z,13.76
2019-04-30T06:39:13.823Z,13.87
2019-04-30T06:40:14.237Z,13.98
2019-04-30T06:41:14.815Z,14.09
2019-04-30T06:42:15.594Z,14.20
2019-04-30T06:43:15.932Z,14.33
2019-04-30T06:44:16.357Z,14.47
2019-04-30T06:45:18.993Z,14.62
2019-04-30T06:46:18.564Z,14.78
2019-04-30T06:47:20.011Z,14.96
2019-04-30T06:48:19.759Z,15.15
2019-04-30T06:49:19.489Z,15.36
2019-04-30T06:50:19.423Z,15.59
2019-04-30T06:51:19.399Z,15.82
2019-04-30T06:52:23.546Z,16.07
2019-04-30T06:53:20.601Z,16.32
2019-04-30T06:54:22.044Z,16.58
2019-04-30T06:55:22.535Z,16.80
2019-04-30T06:56:23.057Z,17.02
2019-04-30T06:56:32.103Z,20.64
2019-04-30T06:57:33.751Z,20.62
2019-04-30T06:58:34.309Z,20.63
2019-04-30T06:59:34.922Z,20.66
2019-04-30T07:00:35.641Z,20.72
2019-04-30T07:01:34.846Z,20.80
2019-04-30T07:02:36.344Z,20.87
2019-04-30T07:03:36.730Z,20.91
2019-04-30T07:04:37.245Z,20.96
2019-04-30T07:05:38.927Z,21.05
2019-04-30T07:06:43.935Z,21.15
2019-04-30T07:07:41.525Z,21.25
2019-04-30T07:08:42.469Z,21.36
2019-04-30T07:09:51.461Z,21.44
2019-04-30T07:10:41.408Z,21.47
2019-04-30T07:11:40.063Z,21.52
2019-04-30T07:12:42.134Z,21.60
2019-04-30T07:13:41.630Z,21.70
2019-04-30T07:14:42.088Z,21.77
2019-04-30T07:15:42.745Z,21.84
2019-04-30T07:16:43.186Z,21.89
2019-04-30T07:17:43.825Z,21.93
2019-04-30T07:18:44.329Z,21.95
2019-04-30T07:19:55.700Z,21.97
2019-04-30T07:20:44.194Z,21.93
2019-04-30T07:21:45.792Z,21.89
2019-04-30T07:22:52.524Z,21.83
2019-04-30T07:23:48.498Z,21.75
2019-04-30T07:24:46.996Z,21.68
2019-04-30T07:25:51.379Z,21.58
2019-04-30T07:26:49.011Z,21.50
2019-04-30T07:27:50.550Z,21.44
2019-04-30T07:28:54.237Z,21.39
2019-04-30T07:29:49.675Z,21.34
2019-04-30T07:31:07.180Z,21.23
2019-04-30T07:31:51.755Z,21.09
2019-04-30T07:32:51.243Z,20.94
2019-04-30T07:33:53.870Z,20.79
2019-04-30T07:34:52.136Z,20.62
2019-04-30T07:35:53.478Z,20.47
2019-04-30T07:37:10.919Z,20.33
2019-04-30T07:37:54.683Z,20.16
2019-04-30T07:38:56.668Z,19.99
2019-04-30T07:39:54.683Z,19.82
2019-04-30T07:40:55.907Z,19.67
2019-04-30T07:41:56.389Z,19.53
2019-04-30T07:42:58.969Z,19.36
2019-04-30T07:43:56.243Z,19.21
2019-04-30T07:45:00.414Z,19.10
2019-04-30T07:45:59.698Z,19.01
2019-04-30T07:46:59.396Z,18.96
2019-04-30T07:47:59.371Z,18.92
2019-04-30T07:49:00.006Z,18.91
2019-04-30T07:50:00.642Z,18.92
2019-04-30T07:51:00.033Z,18.92
2019-04-30T07:52:02.455Z,18.93
2019-04-30T07:53:05.519Z,18.95
2019-04-30T07:54:01.397Z,19.00
2019-04-30T07:55:02.792Z,19.04
2019-04-30T07:56:21.146Z,19.12
2019-04-30T07:57:02.879Z,19.19
2019-04-30T07:58:03.200Z,19.26
2019-04-30T07:59:04.647Z,19.34
2019-04-30T08:00:05.328Z,19.43
2019-04-30T08:01:06.266Z,19.52
2019-04-30T08:02:13.639Z,19.61
2019-04-30T08:03:06.896Z,19.69
2019-04-30T08:04:08.688Z,19.77
2019-04-30T08:05:10.340Z,19.83
2019-04-30T08:06:10.101Z,19.89
2019-04-30T08:07:09.778Z,19.93
2019-04-30T08:08:20.822Z,19.96
2019-04-30T08:09:10.281Z,19.97
2019-04-30T08:09:19.636Z,19.78
2019-04-30T08:10:19.077Z,19.72
2019-04-30T08:11:26.079Z,19.70
2019-04-30T08:12:26.103Z,19.68
2019-04-30T08:13:21.844Z,19.66
2019-04-30T08:14:21.200Z,19.63
2019-04-30T08:15:21.366Z,19.59
2019-04-30T08:16:22.854Z,19.58
2019-04-30T08:17:23.261Z,19.56
2019-04-30T08:18:23.693Z,19.55
2019-04-30T08:19:24.066Z,19.55
2019-04-30T08:20:24.639Z,19.54
2019-04-30T08:21:26.401Z,19.52
2019-04-30T08:22:25.929Z,19.49
2019-04-30T08:23:34.997Z,19.46
2019-04-30T08:24:26.328Z,19.42
2019-04-30T08:25:29.097Z,19.37
2019-04-30T08:26:28.716Z,19.33
2019-04-30T08:27:29.640Z,19.27
2019-04-30T08:28:30.400Z,19.23
2019-04-30T08:29:29.526Z,19.18
2019-04-30T08:30:30.125Z,19.13
2019-04-30T08:31:30.416Z,19.08
2019-04-30T08:32:31.805Z,19.03
2019-04-30T08:33:32.337Z,18.98
2019-04-30T08:34:32.875Z,18.95
2019-04-30T08:35:33.422Z,18.92
2019-04-30T08:36:33.884Z,18.88
2019-04-30T08:37:34.268Z,18.83
2019-04-30T08:38:35.180Z,18.78
2019-04-30T08:39:34.610Z,18.75
2019-04-30T08:40:36.109Z,18.72
2019-04-30T08:41:36.568Z,18.69
2019-04-30T08:42:38.429Z,18.67
2019-04-30T08:43:36.071Z,18.66
2019-04-30T08:44:39.511Z,18.67
2019-04-30T08:45:38.589Z,18.69
2019-04-30T08:46:38.750Z,18.69
2019-04-30T08:47:39.306Z,18.70
2019-04-30T08:48:47.845Z,18.70
2019-04-30T08:49:40.444Z,18.69
2019-04-30T08:50:39.734Z,18.69
2019-04-30T08:51:40.137Z,18.70
2019-04-30T08:52:40.063Z,18.71
2019-04-30T08:53:41.589Z,18.72
2019-04-30T08:54:40.944Z,18.72
2019-04-30T08:55:42.443Z,18.71
2019-04-30T08:56:43.016Z,18.69
2019-04-30T08:57:43.682Z,18.68
2019-04-30T08:58:44.039Z,18.68
2019-04-30T08:59:44.538Z,18.67
2019-04-30T09:00:45.459Z,18.66
2019-04-30T09:01:46.006Z,18.65
2019-04-30T09:02:46.525Z,18.64
2019-04-30T09:03:46.080Z,18.63
2019-04-30T09:04:49.397Z,18.58
2019-04-30T09:05:47.256Z,18.53
2019-04-30T09:06:49.240Z,18.49
2019-04-30T09:07:48.651Z,18.44
2019-04-30T09:08:49.070Z,18.37
2019-04-30T09:09:49.182Z,18.30
2019-04-30T09:10:50.444Z,18.23
2019-04-30T09:11:55.381Z,18.18
2019-04-30T09:12:52.014Z,18.14
2019-04-30T09:13:51.484Z,18.11
2019-04-30T09:14:53.118Z,18.08
2019-04-30T09:15:02.653Z,17.69
2019-04-30T09:16:04.503Z,17.63
2019-04-30T09:17:05.017Z,17.62
2019-04-30T09:18:08.216Z,17.62
2019-04-30T09:19:04.731Z,17.63
2019-04-30T09:20:06.329Z,17.63
2019-04-30T09:21:08.848Z,17.63
2019-04-30T09:22:14.362Z,17.64
2019-04-30T09:23:06.363Z,17.66
2019-04-30T09:24:09.525Z,17.69
2019-04-30T09:25:09.222Z,17.72
2019-04-30T09:26:08.675Z,17.72
2019-04-30T09:27:10.655Z,17.72
2019-04-30T09:28:08.900Z,17.70
2019-04-30T09:29:10.489Z,17.67
2019-04-30T09:30:10.545Z,17.64
2019-04-30T09:31:10.054Z,17.61
2019-04-30T09:32:11.553Z,17.59
2019-04-30T09:33:12.034Z,17.58
2019-04-30T09:34:17.018Z,17.54
2019-04-30T09:35:12.207Z,17.51
2019-04-30T09:36:13.751Z,17.49
2019-04-30T09:37:14.337Z,17.49
2019-04-30T09:38:14.754Z,17.48
2019-04-30T09:39:15.251Z,17.46
2019-04-30T09:40:18.534Z,17.45
2019-04-30T09:41:15.898Z,17.44
2019-04-30T09:42:19.405Z,17.43
2019-04-30T09:43:18.802Z,17.43
2019-04-30T09:44:19.448Z,17.42
2019-04-30T09:45:18.736Z,17.42
2019-04-30T09:46:26.312Z,17.41
2019-04-30T09:47:20.039Z,17.41
2019-04-30T09:48:19.204Z,17.41
2019-04-30T09:49:19.524Z,17.41
2019-04-30T09:50:19.890Z,17.40
2019-04-30T09:51:24.601Z,17.39
2019-04-30T09:52:21.874Z,17.41
2019-04-30T09:53:22.160Z,17.41
2019-04-30T09:54:24.127Z,17.41
2019-04-30T09:55:23.343Z,17.40
2019-04-30T09:56:24.825Z,17.40
2019-04-30T09:57:25.253Z,17.40
2019-04-30T09:58:25.977Z,17.41
2019-04-30T09:59:26.393Z,17.42
2019-04-30T10:00:26.835Z,17.43
2019-04-30T10:01:27.837Z,17.45
2019-04-30T10:02:29.052Z,17.47
2019-04-30T10:03:30.263Z,17.49
2019-04-30T10:04:30.348Z,17.51
2019-04-30T10:05:29.294Z,17.53
2019-04-30T10:06:38.933Z,17.55
2019-04-30T10:07:29.725Z,17.57
2019-04-30T10:08:31.756Z,17.58
2019-04-30T10:09:30.870Z,17.59
2019-04-30T10:10:32.387Z,17.61
2019-04-30T10:11:32.949Z,17.64
2019-04-30T10:12:33.443Z,17.66
2019-04-30T10:13:34.176Z,17.70
2019-04-30T10:14:33.218Z,17.72
2019-04-30T10:15:34.742Z,17.74
2019-04-30T10:16:35.279Z,17.77
2019-04-30T10:17:35.699Z,17.81
2019-04-30T10:18:36.177Z,17.85
2019-04-30T10:19:36.839Z,17.89
2019-04-30T10:20:37.245Z,17.93
2019-04-30T10:20:45.777Z,18.37
2019-04-30T10:21:48.984Z,18.35
2019-04-30T10:22:46.437Z,18.36
2019-04-30T10:23:49.821Z,18.35
2019-04-30T10:24:49.441Z,18.36
2019-04-30T10:25:47.973Z,18.37
2019-04-30T10:26:49.372Z,18.36
2019-04-30T10:27:49.936Z,18.36
2019-04-30T10:28:49.161Z,18.36
2019-04-30T10:29:50.670Z,18.37
2019-04-30T10:30:51.146Z,18.37
2019-04-30T10:31:51.516Z,18.36
2019-04-30T10:32:52.468Z,18.37
2019-04-30T10:33:52.839Z,18.37
2019-04-30T10:34:53.340Z,18.38
2019-04-30T10:35:54.253Z,18.39
2019-04-30T10:36:53.781Z,18.39
2019-04-30T10:37:55.205Z,18.40
2019-04-30T10:38:55.598Z,18.41
2019-04-30T10:39:56.486Z,18.43
2019-04-30T10:40:58.727Z,18.44
2019-04-30T10:41:56.489Z,18.45
2019-04-30T10:42:58.666Z,18.46
2019-04-30T10:43:59.122Z,18.47
2019-04-30T10:45:00.036Z,18.48
2019-04-30T10:45:58.876Z,18.49
2019-04-30T10:47:00.563Z,18.49
2019-04-30T10:48:01.030Z,18.50
2019-04-30T10:49:01.552Z,18.50
2019-04-30T10:50:01.897Z,18.51
2019-04-30T10:51:02.898Z,18.52
2019-04-30T10:52:02.491Z,18.53
2019-04-30T10:53:03.141Z,18.55
2019-04-30T10:54:03.677Z,18.56
2019-04-30T10:55:04.655Z,18.59
2019-04-30T10:56:03.756Z,18.62
2019-04-30T10:57:05.315Z,18.65
2019-04-30T10:58:05.895Z,18.68
2019-04-30T10:59:06.289Z,18.70
2019-04-30T11:00:08.327Z,18.73
2019-04-30T11:01:06.548Z,18.75
2019-04-30T11:02:09.088Z,18.78
2019-04-30T11:03:17.298Z,18.80
2019-04-30T11:04:07.938Z,18.82
2019-04-30T11:05:08.423Z,18.84
2019-04-30T11:06:09.455Z,18.86
2019-04-30T11:07:10.189Z,18.87
2019-04-30T11:08:11.003Z,18.88
2019-04-30T11:09:11.011Z,18.88
2019-04-30T11:10:11.504Z,18.90
2019-04-30T11:11:12.232Z,18.91
2019-04-30T11:12:12.734Z,18.93
2019-04-30T11:13:13.025Z,18.93
2019-04-30T11:14:12.136Z,18.93
2019-04-30T11:15:13.753Z,18.92
2019-04-30T11:15:22.334Z,18.84
2019-04-30T11:16:23.335Z,18.80
2019-04-30T11:17:24.206Z,18.79
2019-04-30T11:18:23.745Z,18.78
2019-04-30T11:19:24.154Z,18.77
2019-04-30T11:20:24.775Z,18.76
2019-04-30T11:21:25.315Z,18.75
2019-04-30T11:22:26.394Z,18.74
2019-04-30T11:23:26.852Z,18.74
2019-04-30T11:24:36.571Z,18.72
2019-04-30T11:25:30.742Z,18.72
2019-04-30T11:26:31.125Z,18.73
2019-04-30T11:27:30.642Z,18.74
2019-04-30T11:28:30.099Z,18.74
2019-04-30T11:29:31.000Z,18.75
2019-04-30T11:30:31.399Z,18.77
2019-04-30T11:31:32.157Z,18.78
2019-04-30T11:32:32.657Z,18.80
2019-04-30T11:33:33.554Z,18.82
2019-04-30T11:34:33.817Z,18.85
2019-04-30T11:35:35.270Z,18.86
2019-04-30T11:36:35.682Z,18.88
2019-04-30T11:37:36.159Z,18.90
2019-04-30T11:38:38.806Z,18.92
2019-04-30T11:39:36.415Z,18.94
2019-04-30T11:40:39.918Z,18.96
2019-04-30T11:41:39.148Z,18.98
2019-04-30T11:42:37.995Z,19.00
2019-04-30T11:43:39.559Z,19.02
2019-04-30T11:44:40.369Z,19.04
2019-04-30T11:45:39.618Z,19.06
2019-04-30T11:46:41.166Z,19.08
2019-04-30T11:47:53.077Z,19.09
2019-04-30T11:48:41.294Z,19.10
2019-04-30T11:49:42.937Z,19.11
2019-04-30T11:50:43.810Z,19.12
2019-04-30T11:51:44.694Z,19.12
2019-04-30T11:52:45.273Z,19.12
2019-04-30T11:53:45.856Z,19.13
2019-04-30T11:54:51.378Z,19.13
2019-04-30T11:55:45.949Z,19.14
2019-04-30T11:56:50.249Z,19.15
2019-04-30T11:57:49.391Z,19.15
2019-04-30T11:58:48.922Z,19.16
2019-04-30T11:59:47.894Z,19.17
2019-04-30T12:00:49.610Z,19.19
2019-04-30T12:01:49.178Z,19.21
2019-04-30T12:02:53.010Z,19.24
2019-04-30T12:03:50.446Z,19.27
2019-04-30T12:04:52.004Z,19.30
2019-04-30T12:05:52.635Z,19.32
2019-04-30T12:06:53.227Z,19.34
2019-04-30T12:07:53.816Z,19.36
2019-04-30T12:08:54.207Z,19.38
2019-04-30T12:09:54.724Z,19.40
2019-04-30T12:10:55.426Z,19.42
2019-04-30T12:11:55.997Z,19.43
2019-04-30T12:12:58.584Z,19.44
2019-04-30T12:13:56.061Z,19.46
2019-04-30T12:14:59.343Z,19.47
2019-04-30T12:15:58.915Z,19.48
2019-04-30T12:16:57.625Z,19.50
2019-04-30T12:17:58.097Z,19.52
2019-04-30T12:19:00.671Z,19.55
2019-04-30T12:19:59.415Z,19.57
2019-04-30T12:21:00.881Z,19.59
2019-04-30T12:22:01.622Z,19.61
2019-04-30T12:23:01.632Z,19.63
2019-04-30T12:24:02.621Z,19.65
2019-04-30T12:24:11.167Z,19.97
2019-04-30T12:25:12.538Z,19.95
2019-04-30T12:26:12.957Z,19.95
2019-04-30T12:27:13.457Z,19.95
2019-04-30T12:28:14.144Z,19.97
2019-04-30T12:29:14.642Z,19.98
2019-04-30T12:30:15.400Z,19.99
2019-04-30T12:31:16.173Z,20.00
2019-04-30T12:32:16.704Z,20.01
2019-04-30T12:33:19.195Z,20.02
2019-04-30T12:34:16.802Z,20.03
2019-04-30T12:35:18.531Z,20.04
2019-04-30T12:36:19.508Z,20.06
2019-04-30T12:37:19.117Z,20.08
2019-04-30T12:38:19.466Z,20.09
2019-04-30T12:39:20.898Z,20.10
2019-04-30T12:40:28.987Z,20.11
2019-04-30T12:41:20.997Z,20.12
2019-04-30T12:42:22.458Z,20.12
2019-04-30T12:43:23.186Z,20.12
2019-04-30T12:44:23.743Z,20.12
2019-04-30T12:45:24.576Z,20.13
2019-04-30T12:46:25.035Z,20.14
2019-04-30T12:47:26.651Z,20.14
2019-04-30T12:48:26.154Z,20.15
2019-04-30T12:49:28.766Z,20.17
2019-04-30T12:50:26.504Z,20.18
2019-04-30T12:51:27.638Z,20.19
2019-04-30T12:52:29.563Z,20.20